Airfield :
LOGIN :

Register | Disclaimer

   EN    FR    IT 

 










Legend :    VFR   Marginal VFR   IFR   Intensive IFR   Very Intensive IFR
Visi :
Ceiling :
>= 8 km
>= 3000ft
5 to 8 km
1000 to 3000 ft
1500m to 5 km
500 to 1000 ft
800 to 1500m
200 to 500 ft
< 800m
< 200 ft
Symbols :   Thunderstorms  Fog  Heavy snow  Heavy precipitations  Wind > 20 kt
SIGMETs :     Misc.  Thunderstorms  Icing  Turbulence  Mountain Waves  Volcanic Ashes






- Airport Elevation : 65 ft
- IATA code : PIK


EGPK - Glasgow Prestwick

CURRENT METAR :
  • 211720Z 29019KT 9999 SCT027 SCT038 10/03 Q1012

EXPIRED METARs :
  • 211650Z 30021KT 9999 SCT027 SCT038 10/04 Q1012
  • 211620Z 30018KT 9999 FEW027 SCT038 09/04 Q1012
  • 211550Z 30018KT 270V330 9999 FEW025 SCT031 BKN040 09/05 Q1012
  • 211520Z 29014G29KT 250V310 9999 SCT039 10/04 Q1012
  • 211450Z 31012KT 9999 SCT041 09/06 Q1012

TAF TAF EGPK
Valid from the 21 at 18:00 until the 22 at 18:00 UTC


211656Z 2118/2218 29018G30KT 9999 SCT030
TEMPO 2118/2215 8000 -SHRA
PROB30
TEMPO 2118/2209 4000 SHRA
BECMG 2203/2206 28009KT



MET'MAP, your aeronautical weather chart ! - Copyright ORBIFLY December 2007 - Disclaimer

ORBIFLY MET'MAP TEAM :

Programming & Development : Alexandra Zaïnal
Concept & original design : Baudouin d'Aumeries
Assistance for programming : Marc-Olivier Méhu
Technical & hardware support : Manuel Goepfert

Contact : metmap@orbifly.com




SOURCES & CREDITS :

   NOAA